sensor_id;sensor_type;location;lat;lon;timestamp;temperature;humidity
15107;DHT22;7654;45.308;-75.096;2022-08-02T00:00:07;24.20;99.90
15107;DHT22;7654;45.308;-75.096;2022-08-02T00:02:38;24.10;99.90
15107;DHT22;7654;45.308;-75.096;2022-08-02T00:05:08;24.00;99.90
15107;DHT22;7654;45.308;-75.096;2022-08-02T00:07:39;23.80;99.90
15107;DHT22;7654;45.308;-75.096;2022-08-02T00:10:09;23.60;99.90
15107;DHT22;7654;45.308;-75.096;2022-08-02T00:12:39;23.50;99.90
15107;DHT22;7654;45.308;-75.096;2022-08-02T00:15:09;23.30;99.90
15107;DHT22;7654;45.308;-75.096;2022-08-02T00:17:42;23.20;99.90
15107;DHT22;7654;45.308;-75.096;2022-08-02T00:20:15;23.00;99.90
15107;DHT22;7654;45.308;-75.096;2022-08-02T00:22:46;22.80;99.90
15107;DHT22;7654;45.308;-75.096;2022-08-02T00:25:16;22.70;99.90
15107;DHT22;7654;45.308;-75.096;2022-08-02T00:27:46;22.50;99.90
15107;DHT22;7654;45.308;-75.096;2022-08-02T00:30:17;22.40;99.90
15107;DHT22;7654;45.308;-75.096;2022-08-02T00:32:46;22.20;99.90
15107;DHT22;7654;45.308;-75.096;2022-08-02T00:35:16;22.10;99.90
15107;DHT22;7654;45.308;-75.096;2022-08-02T00:37:49;21.90;99.90
15107;DHT22;7654;45.308;-75.096;2022-08-02T00:40:20;21.80;99.90
15107;DHT22;7654;45.308;-75.096;2022-08-02T00:42:59;21.70;99.90
15107;DHT22;7654;45.308;-75.096;2022-08-02T00:45:31;21.60;99.90
15107;DHT22;7654;45.308;-75.096;2022-08-02T00:48:21;21.60;99.90
15107;DHT22;7654;45.308;-75.096;2022-08-02T00:50:51;21.50;99.90
15107;DHT22;7654;45.308;-75.096;2022-08-02T00:53:24;21.40;99.90
15107;DHT22;7654;45.308;-75.096;2022-08-02T00:55:53;21.30;99.90
15107;DHT22;7654;45.308;-75.096;2022-08-02T00:58:23;21.20;99.90
15107;DHT22;7654;45.308;-75.096;2022-08-02T01:00:53;21.10;99.90
15107;DHT22;7654;45.308;-75.096;2022-08-02T01:03:25;21.10;99.90
15107;DHT22;7654;45.308;-75.096;2022-08-02T01:05:54;21.10;99.90
15107;DHT22;7654;45.308;-75.096;2022-08-02T01:08:39;21.10;99.90
15107;DHT22;7654;45.308;-75.096;2022-08-02T01:11:10;21.10;99.90
15107;DHT22;7654;45.308;-75.096;2022-08-02T01:13:40;21.20;99.90
15107;DHT22;7654;45.308;-75.096;2022-08-02T01:16:10;21.10;99.90
15107;DHT22;7654;45.308;-75.096;2022-08-02T01:18:43;21.10;99.90
15107;DHT22;7654;45.308;-75.096;2022-08-02T01:21:18;21.10;99.90
15107;DHT22;7654;45.308;-75.096;2022-08-02T01:24:03;21.10;99.90
15107;DHT22;7654;45.308;-75.096;2022-08-02T01:26:41;21.00;99.90
15107;DHT22;7654;45.308;-75.096;2022-08-02T01:29:16;21.00;99.90
15107;DHT22;7654;45.308;-75.096;2022-08-02T01:31:48;21.00;99.90
15107;DHT22;7654;45.308;-75.096;2022-08-02T01:34:21;21.00;99.90
15107;DHT22;7654;45.308;-75.096;2022-08-02T01:36:54;21.00;99.90
15107;DHT22;7654;45.308;-75.096;2022-08-02T01:39:25;21.00;99.90
15107;DHT22;7654;45.308;-75.096;2022-08-02T01:41:59;21.00;99.90
15107;DHT22;7654;45.308;-75.096;2022-08-02T01:44:32;21.00;99.90
15107;DHT22;7654;45.308;-75.096;2022-08-02T01:47:03;21.00;99.90
15107;DHT22;7654;45.308;-75.096;2022-08-02T01:49:34;21.00;99.90
15107;DHT22;7654;45.308;-75.096;2022-08-02T01:52:04;21.00;99.90
15107;DHT22;7654;45.308;-75.096;2022-08-02T01:54:48;21.00;99.90
15107;DHT22;7654;45.308;-75.096;2022-08-02T01:57:19;21.00;99.90
15107;DHT22;7654;45.308;-75.096;2022-08-02T01:59:52;21.00;99.90
15107;DHT22;7654;45.308;-75.096;2022-08-02T02:02:23;21.00;99.90
15107;DHT22;7654;45.308;-75.096;2022-08-02T02:04:57;21.00;99.90
15107;DHT22;7654;45.308;-75.096;2022-08-02T02:07:28;21.00;99.90
15107;DHT22;7654;45.308;-75.096;2022-08-02T02:09:59;21.00;99.90
15107;DHT22;7654;45.308;-75.096;2022-08-02T02:12:30;21.00;99.90
15107;DHT22;7654;45.308;-75.096;2022-08-02T02:15:01;21.00;99.90
15107;DHT22;7654;45.308;-75.096;2022-08-02T02:17:31;21.10;99.90
15107;DHT22;7654;45.308;-75.096;2022-08-02T02:20:22;21.20;99.90
15107;DHT22;7654;45.308;-75.096;2022-08-02T02:22:52;21.20;99.90
15107;DHT22;7654;45.308;-75.096;2022-08-02T02:25:22;21.20;99.90
15107;DHT22;7654;45.308;-75.096;2022-08-02T02:28:02;21.20;99.90
15107;DHT22;7654;45.308;-75.096;2022-08-02T02:30:36;21.20;99.90
15107;DHT22;7654;45.308;-75.096;2022-08-02T02:33:06;21.20;99.90
15107;DHT22;7654;45.308;-75.096;2022-08-02T02:35:36;21.20;99.90
15107;DHT22;7654;45.308;-75.096;2022-08-02T02:38:08;21.30;99.90
15107;DHT22;7654;45.308;-75.096;2022-08-02T02:40:40;21.40;99.90
15107;DHT22;7654;45.308;-75.096;2022-08-02T02:43:10;21.40;99.90
15107;DHT22;7654;45.308;-75.096;2022-08-02T02:45:42;21.50;99.90
15107;DHT22;7654;45.308;-75.096;2022-08-02T02:48:12;21.60;99.90
15107;DHT22;7654;45.308;-75.096;2022-08-02T02:50:42;21.60;99.90
15107;DHT22;7654;45.308;-75.096;2022-08-02T02:53:12;21.70;99.90
15107;DHT22;7654;45.308;-75.096;2022-08-02T02:55:44;21.70;99.90
15107;DHT22;7654;45.308;-75.096;2022-08-02T02:58:28;21.80;99.90
15107;DHT22;7654;45.308;-75.096;2022-08-02T03:01:00;21.80;99.90
15107;DHT22;7654;45.308;-75.096;2022-08-02T03:04:07;21.80;99.90
15107;DHT22;7654;45.308;-75.096;2022-08-02T03:06:38;21.80;99.90
15107;DHT22;7654;45.308;-75.096;2022-08-02T03:09:08;21.80;99.90
15107;DHT22;7654;45.308;-75.096;2022-08-02T03:11:38;21.80;99.90
15107;DHT22;7654;45.308;-75.096;2022-08-02T03:14:09;21.90;99.90
15107;DHT22;7654;45.308;-75.096;2022-08-02T03:16:44;22.00;99.90
15107;DHT22;7654;45.308;-75.096;2022-08-02T03:19:14;22.00;99.90
15107;DHT22;7654;45.308;-75.096;2022-08-02T03:21:44;22.00;99.90
15107;DHT22;7654;45.308;-75.096;2022-08-02T03:24:23;22.00;99.90
15107;DHT22;7654;45.308;-75.096;2022-08-02T03:26:54;22.00;99.90
15107;DHT22;7654;45.308;-75.096;2022-08-02T03:29:23;22.00;99.90
15107;DHT22;7654;45.308;-75.096;2022-08-02T03:32:00;22.10;99.90
15107;DHT22;7654;45.308;-75.096;2022-08-02T03:34:29;22.10;99.90
15107;DHT22;7654;45.308;-75.096;2022-08-02T03:36:59;22.10;99.90
15107;DHT22;7654;45.308;-75.096;2022-08-02T03:39:30;22.20;99.90
15107;DHT22;7654;45.308;-75.096;2022-08-02T03:42:00;22.10;99.90
15107;DHT22;7654;45.308;-75.096;2022-08-02T03:44:30;22.20;99.90
15107;DHT22;7654;45.308;-75.096;2022-08-02T03:47:01;22.20;99.90
15107;DHT22;7654;45.308;-75.096;2022-08-02T03:49:31;22.20;99.90
15107;DHT22;7654;45.308;-75.096;2022-08-02T03:52:01;22.10;99.90
15107;DHT22;7654;45.308;-75.096;2022-08-02T03:54:31;22.10;99.90
15107;DHT22;7654;45.308;-75.096;2022-08-02T03:57:11;22.00;99.90
15107;DHT22;7654;45.308;-75.096;2022-08-02T03:59:42;22.00;99.90
15107;DHT22;7654;45.308;-75.096;2022-08-02T04:02:13;21.90;99.90
15107;DHT22;7654;45.308;-75.096;2022-08-02T04:04:43;21.90;99.90
15107;DHT22;7654;45.308;-75.096;2022-08-02T04:07:13;21.80;99.90
15107;DHT22;7654;45.308;-75.096;2022-08-02T04:10:02;21.80;99.90
15107;DHT22;7654;45.308;-75.096;2022-08-02T04:12:32;21.70;99.90
15107;DHT22;7654;45.308;-75.096;2022-08-02T04:15:02;21.60;99.90
15107;DHT22;7654;45.308;-75.096;2022-08-02T04:17:35;21.60;99.90
15107;DHT22;7654;45.308;-75.096;2022-08-02T04:20:07;21.60;99.90
15107;DHT22;7654;45.308;-75.096;2022-08-02T04:22:39;21.60;99.90
15107;DHT22;7654;45.308;-75.096;2022-08-02T04:25:11;21.70;99.90
15107;DHT22;7654;45.308;-75.096;2022-08-02T04:27:43;21.70;99.90
15107;DHT22;7654;45.308;-75.096;2022-08-02T04:30:33;21.60;99.90
15107;DHT22;7654;45.308;-75.096;2022-08-02T04:33:04;21.60;99.90
15107;DHT22;7654;45.308;-75.096;2022-08-02T04:35:34;21.60;99.90
15107;DHT22;7654;45.308;-75.096;2022-08-02T04:38:04;21.60;99.90
15107;DHT22;7654;45.308;-75.096;2022-08-02T04:40:36;21.60;99.90
15107;DHT22;7654;45.308;-75.096;2022-08-02T04:43:06;21.60;99.90
15107;DHT22;7654;45.308;-75.096;2022-08-02T04:45:36;21.50;99.90
15107;DHT22;7654;45.308;-75.096;2022-08-02T04:48:07;21.50;99.90
15107;DHT22;7654;45.308;-75.096;2022-08-02T04:50:37;21.40;99.90
15107;DHT22;7654;45.308;-75.096;2022-08-02T04:53:06;21.30;99.90
15107;DHT22;7654;45.308;-75.096;2022-08-02T04:55:36;21.20;99.90
15107;DHT22;7654;45.308;-75.096;2022-08-02T04:58:05;21.10;99.90
15107;DHT22;7654;45.308;-75.096;2022-08-02T05:00:55;21.10;99.90
15107;DHT22;7654;45.308;-75.096;2022-08-02T05:03:26;21.10;99.90
15107;DHT22;7654;45.308;-75.096;2022-08-02T05:05:56;21.10;99.90
15107;DHT22;7654;45.308;-75.096;2022-08-02T05:08:27;21.00;99.90
15107;DHT22;7654;45.308;-75.096;2022-08-02T05:10:56;21.00;99.90
15107;DHT22;7654;45.308;-75.096;2022-08-02T05:13:26;21.00;99.90
15107;DHT22;7654;45.308;-75.096;2022-08-02T05:15:55;21.00;99.90
15107;DHT22;7654;45.308;-75.096;2022-08-02T05:18:29;21.00;99.90
15107;DHT22;7654;45.308;-75.096;2022-08-02T05:20:59;21.00;99.90
15107;DHT22;7654;45.308;-75.096;2022-08-02T05:23:29;21.00;99.90
15107;DHT22;7654;45.308;-75.096;2022-08-02T05:25:59;21.00;99.90
15107;DHT22;7654;45.308;-75.096;2022-08-02T05:28:28;21.10;99.90
15107;DHT22;7654;45.308;-75.096;2022-08-02T05:31:02;21.10;99.90
15107;DHT22;7654;45.308;-75.096;2022-08-02T05:33:40;21.10;99.90
15107;DHT22;7654;45.308;-75.096;2022-08-02T05:36:10;21.20;99.90
15107;DHT22;7654;45.308;-75.096;2022-08-02T05:38:41;21.20;99.90
15107;DHT22;7654;45.308;-75.096;2022-08-02T05:41:16;21.20;99.90
15107;DHT22;7654;45.308;-75.096;2022-08-02T05:43:46;21.20;99.90
15107;DHT22;7654;45.308;-75.096;2022-08-02T05:46:15;21.30;99.90
15107;DHT22;7654;45.308;-75.096;2022-08-02T05:48:47;21.20;99.90
15107;DHT22;7654;45.308;-75.096;2022-08-02T05:51:18;21.20;99.90
15107;DHT22;7654;45.308;-75.096;2022-08-02T05:53:50;21.20;99.90
15107;DHT22;7654;45.308;-75.096;2022-08-02T05:56:27;21.20;99.90
15107;DHT22;7654;45.308;-75.096;2022-08-02T05:58:59;21.10;99.90
15107;DHT22;7654;45.308;-75.096;2022-08-02T06:01:32;21.00;99.90
15107;DHT22;7654;45.308;-75.096;2022-08-02T06:04:06;21.10;99.90
15107;DHT22;7654;45.308;-75.096;2022-08-02T06:06:36;21.10;99.90
15107;DHT22;7654;45.308;-75.096;2022-08-02T06:09:07;21.20;99.90
15107;DHT22;7654;45.308;-75.096;2022-08-02T06:11:42;21.20;99.90
15107;DHT22;7654;45.308;-75.096;2022-08-02T06:14:30;21.20;99.90
15107;DHT22;7654;45.308;-75.096;2022-08-02T06:17:01;21.20;99.90
15107;DHT22;7654;45.308;-75.096;2022-08-02T06:19:33;21.20;99.90
15107;DHT22;7654;45.308;-75.096;2022-08-02T06:22:18;21.20;99.90
15107;DHT22;7654;45.308;-75.096;2022-08-02T06:25:06;21.20;99.90
15107;DHT22;7654;45.308;-75.096;2022-08-02T06:27:57;21.10;99.90
15107;DHT22;7654;45.308;-75.096;2022-08-02T06:30:28;21.10;99.90
15107;DHT22;7654;45.308;-75.096;2022-08-02T06:32:59;21.10;99.90
15107;DHT22;7654;45.308;-75.096;2022-08-02T06:35:33;21.10;99.90
15107;DHT22;7654;45.308;-75.096;2022-08-02T06:38:03;21.10;99.90
15107;DHT22;7654;45.308;-75.096;2022-08-02T06:40:35;21.10;99.90
15107;DHT22;7654;45.308;-75.096;2022-08-02T06:43:10;21.10;99.90
15107;DHT22;7654;45.308;-75.096;2022-08-02T06:45:40;21.10;99.90
15107;DHT22;7654;45.308;-75.096;2022-08-02T06:48:10;21.20;99.90
15107;DHT22;7654;45.308;-75.096;2022-08-02T06:50:41;21.20;99.90
15107;DHT22;7654;45.308;-75.096;2022-08-02T06:53:11;21.20;99.90
15107;DHT22;7654;45.308;-75.096;2022-08-02T06:55:41;21.20;99.90
15107;DHT22;7654;45.308;-75.096;2022-08-02T06:58:11;21.10;99.90
15107;DHT22;7654;45.308;-75.096;2022-08-02T07:00:41;21.20;99.90
15107;DHT22;7654;45.308;-75.096;2022-08-02T07:03:11;21.10;99.90
15107;DHT22;7654;45.308;-75.096;2022-08-02T07:05:42;21.10;99.90
15107;DHT22;7654;45.308;-75.096;2022-08-02T07:08:15;21.00;99.90
15107;DHT22;7654;45.308;-75.096;2022-08-02T07:10:44;21.00;99.90
15107;DHT22;7654;45.308;-75.096;2022-08-02T07:13:14;21.00;99.90
15107;DHT22;7654;45.308;-75.096;2022-08-02T07:15:43;21.10;99.90
15107;DHT22;7654;45.308;-75.096;2022-08-02T07:18:15;21.10;99.90
15107;DHT22;7654;45.308;-75.096;2022-08-02T07:20:46;21.20;99.90
15107;DHT22;7654;45.308;-75.096;2022-08-02T07:23:16;21.30;99.90
15107;DHT22;7654;45.308;-75.096;2022-08-02T07:25:46;21.30;99.90
15107;DHT22;7654;45.308;-75.096;2022-08-02T07:28:30;21.50;99.90
15107;DHT22;7654;45.308;-75.096;2022-08-02T07:31:00;21.50;99.90
15107;DHT22;7654;45.308;-75.096;2022-08-02T07:33:29;21.60;99.90
15107;DHT22;7654;45.308;-75.096;2022-08-02T07:36:06;21.70;99.90
15107;DHT22;7654;45.308;-75.096;2022-08-02T07:38:44;21.70;99.90
15107;DHT22;7654;45.308;-75.096;2022-08-02T07:41:13;21.80;99.90
15107;DHT22;7654;45.308;-75.096;2022-08-02T07:43:43;21.70;99.90
15107;DHT22;7654;45.308;-75.096;2022-08-02T07:46:13;21.60;99.90
15107;DHT22;7654;45.308;-75.096;2022-08-02T07:48:43;21.40;99.90
15107;DHT22;7654;45.308;-75.096;2022-08-02T07:51:16;21.20;99.90
15107;DHT22;7654;45.308;-75.096;2022-08-02T07:53:45;21.10;99.90
15107;DHT22;7654;45.308;-75.096;2022-08-02T07:56:28;21.00;99.90
15107;DHT22;7654;45.308;-75.096;2022-08-02T07:58:57;20.80;99.90
15107;DHT22;7654;45.308;-75.096;2022-08-02T08:01:27;20.70;99.90
15107;DHT22;7654;45.308;-75.096;2022-08-02T08:03:57;20.60;99.90
15107;DHT22;7654;45.308;-75.096;2022-08-02T08:06:29;20.60;99.90
15107;DHT22;7654;45.308;-75.096;2022-08-02T08:08:59;20.50;99.90
15107;DHT22;7654;45.308;-75.096;2022-08-02T08:11:28;20.50;99.90
15107;DHT22;7654;45.308;-75.096;2022-08-02T08:13:58;20.50;99.90
15107;DHT22;7654;45.308;-75.096;2022-08-02T08:16:27;20.50;99.90
15107;DHT22;7654;45.308;-75.096;2022-08-02T08:18:57;20.50;99.90
15107;DHT22;7654;45.308;-75.096;2022-08-02T08:21:26;20.40;99.90
15107;DHT22;7654;45.308;-75.096;2022-08-02T08:23:57;20.40;99.90
15107;DHT22;7654;45.308;-75.096;2022-08-02T08:26:27;20.40;99.90
15107;DHT22;7654;45.308;-75.096;2022-08-02T08:28:56;20.40;99.90
15107;DHT22;7654;45.308;-75.096;2022-08-02T08:31:27;20.40;99.90
15107;DHT22;7654;45.308;-75.096;2022-08-02T08:33:56;20.40;99.90
15107;DHT22;7654;45.308;-75.096;2022-08-02T08:36:26;20.40;99.90
15107;DHT22;7654;45.308;-75.096;2022-08-02T08:38:57;20.40;99.90
15107;DHT22;7654;45.308;-75.096;2022-08-02T08:41:27;20.40;99.90
15107;DHT22;7654;45.308;-75.096;2022-08-02T08:43:57;20.30;99.90
15107;DHT22;7654;45.308;-75.096;2022-08-02T08:46:27;20.30;99.90
15107;DHT22;7654;45.308;-75.096;2022-08-02T08:48:58;20.30;99.90
15107;DHT22;7654;45.308;-75.096;2022-08-02T08:51:29;20.40;99.90
15107;DHT22;7654;45.308;-75.096;2022-08-02T08:54:01;20.40;99.90
15107;DHT22;7654;45.308;-75.096;2022-08-02T08:56:32;20.40;99.90
15107;DHT22;7654;45.308;-75.096;2022-08-02T08:59:02;20.40;99.90
15107;DHT22;7654;45.308;-75.096;2022-08-02T09:01:33;20.40;99.90
15107;DHT22;7654;45.308;-75.096;2022-08-02T09:04:16;20.30;99.90
15107;DHT22;7654;45.308;-75.096;2022-08-02T09:06:46;20.30;99.90
15107;DHT22;7654;45.308;-75.096;2022-08-02T09:09:17;20.30;99.90
15107;DHT22;7654;45.308;-75.096;2022-08-02T09:11:47;20.30;99.90
15107;DHT22;7654;45.308;-75.096;2022-08-02T09:14:26;20.30;99.90
15107;DHT22;7654;45.308;-75.096;2022-08-02T09:17:05;20.30;99.90
15107;DHT22;7654;45.308;-75.096;2022-08-02T09:19:35;20.30;99.90
15107;DHT22;7654;45.308;-75.096;2022-08-02T09:22:12;20.30;99.90
15107;DHT22;7654;45.308;-75.096;2022-08-02T09:24:45;20.30;99.90
15107;DHT22;7654;45.308;-75.096;2022-08-02T09:27:15;20.20;99.90
15107;DHT22;7654;45.308;-75.096;2022-08-02T09:29:45;20.20;99.90
15107;DHT22;7654;45.308;-75.096;2022-08-02T09:32:43;20.20;99.90
15107;DHT22;7654;45.308;-75.096;2022-08-02T09:35:12;20.20;99.90
15107;DHT22;7654;45.308;-75.096;2022-08-02T09:37:42;20.30;99.90
15107;DHT22;7654;45.308;-75.096;2022-08-02T09:40:16;20.30;99.90
15107;DHT22;7654;45.308;-75.096;2022-08-02T09:43:02;20.30;99.90
15107;DHT22;7654;45.308;-75.096;2022-08-02T09:45:32;20.30;99.90
15107;DHT22;7654;45.308;-75.096;2022-08-02T09:48:02;20.30;99.90
15107;DHT22;7654;45.308;-75.096;2022-08-02T09:50:34;20.30;99.90
15107;DHT22;7654;45.308;-75.096;2022-08-02T09:53:04;20.30;99.90
15107;DHT22;7654;45.308;-75.096;2022-08-02T09:55:36;20.30;99.90
15107;DHT22;7654;45.308;-75.096;2022-08-02T09:58:18;20.40;99.90
15107;DHT22;7654;45.308;-75.096;2022-08-02T10:00:51;20.30;99.90
15107;DHT22;7654;45.308;-75.096;2022-08-02T10:03:21;20.30;99.90
15107;DHT22;7654;45.308;-75.096;2022-08-02T10:06:01;20.30;99.90
15107;DHT22;7654;45.308;-75.096;2022-08-02T10:08:31;20.30;99.90
15107;DHT22;7654;45.308;-75.096;2022-08-02T10:11:02;20.40;99.90
15107;DHT22;7654;45.308;-75.096;2022-08-02T10:13:33;20.40;99.90
15107;DHT22;7654;45.308;-75.096;2022-08-02T10:16:03;20.40;99.90
15107;DHT22;7654;45.308;-75.096;2022-08-02T10:18:33;20.40;99.90
15107;DHT22;7654;45.308;-75.096;2022-08-02T10:21:09;20.50;99.90
15107;DHT22;7654;45.308;-75.096;2022-08-02T10:23:40;20.50;99.90
15107;DHT22;7654;45.308;-75.096;2022-08-02T10:26:16;20.50;99.90
15107;DHT22;7654;45.308;-75.096;2022-08-02T10:28:46;20.50;99.90
15107;DHT22;7654;45.308;-75.096;2022-08-02T10:31:18;20.50;99.90
15107;DHT22;7654;45.308;-75.096;2022-08-02T10:33:48;20.50;99.90
15107;DHT22;7654;45.308;-75.096;2022-08-02T10:36:20;20.50;99.90
15107;DHT22;7654;45.308;-75.096;2022-08-02T10:38:53;20.60;99.90
15107;DHT22;7654;45.308;-75.096;2022-08-02T10:44:23;20.70;99.90
15107;DHT22;7654;45.308;-75.096;2022-08-02T10:49:46;20.80;99.90
15107;DHT22;7654;45.308;-75.096;2022-08-02T10:52:16;20.90;99.90
15107;DHT22;7654;45.308;-75.096;2022-08-02T10:54:50;20.90;99.90
15107;DHT22;7654;45.308;-75.096;2022-08-02T10:57:23;21.00;99.90
15107;DHT22;7654;45.308;-75.096;2022-08-02T10:59:56;21.00;99.90
15107;DHT22;7654;45.308;-75.096;2022-08-02T11:02:33;21.10;99.90
15107;DHT22;7654;45.308;-75.096;2022-08-02T11:05:04;21.20;99.90
15107;DHT22;7654;45.308;-75.096;2022-08-02T11:07:35;21.20;99.90
15107;DHT22;7654;45.308;-75.096;2022-08-02T11:12:59;21.40;99.90
15107;DHT22;7654;45.308;-75.096;2022-08-02T11:15:45;21.50;99.90
15107;DHT22;7654;45.308;-75.096;2022-08-02T11:18:15;21.60;99.90
15107;DHT22;7654;45.308;-75.096;2022-08-02T11:20:45;21.70;99.90
15107;DHT22;7654;45.308;-75.096;2022-08-02T11:23:33;21.80;99.90
15107;DHT22;7654;45.308;-75.096;2022-08-02T11:29:00;21.90;99.90
15107;DHT22;7654;45.308;-75.096;2022-08-02T11:31:37;22.00;99.90
15107;DHT22;7654;45.308;-75.096;2022-08-02T11:34:07;22.00;99.90
15107;DHT22;7654;45.308;-75.096;2022-08-02T11:36:57;22.00;99.90
15107;DHT22;7654;45.308;-75.096;2022-08-02T11:39:27;22.00;99.90
15107;DHT22;7654;45.308;-75.096;2022-08-02T11:41:57;22.00;99.90
15107;DHT22;7654;45.308;-75.096;2022-08-02T11:44:27;22.00;99.90
15107;DHT22;7654;45.308;-75.096;2022-08-02T11:46:59;21.90;99.90
15107;DHT22;7654;45.308;-75.096;2022-08-02T11:49:29;21.90;99.90
15107;DHT22;7654;45.308;-75.096;2022-08-02T11:51:59;21.90;99.90
15107;DHT22;7654;45.308;-75.096;2022-08-02T11:54:32;21.90;99.90
15107;DHT22;7654;45.308;-75.096;2022-08-02T11:57:08;21.90;99.90
15107;DHT22;7654;45.308;-75.096;2022-08-02T11:59:46;21.90;99.90
15107;DHT22;7654;45.308;-75.096;2022-08-02T12:02:17;21.90;99.90
15107;DHT22;7654;45.308;-75.096;2022-08-02T12:04:51;21.90;99.90
15107;DHT22;7654;45.308;-75.096;2022-08-02T12:07:25;21.90;99.90
15107;DHT22;7654;45.308;-75.096;2022-08-02T12:10:03;21.90;99.90
15107;DHT22;7654;45.308;-75.096;2022-08-02T12:12:45;22.00;99.90
15107;DHT22;7654;45.308;-75.096;2022-08-02T12:15:15;22.00;99.90
15107;DHT22;7654;45.308;-75.096;2022-08-02T12:17:59;22.10;99.90
15107;DHT22;7654;45.308;-75.096;2022-08-02T12:20:46;22.10;99.90
15107;DHT22;7654;45.308;-75.096;2022-08-02T12:23:15;22.20;99.90
15107;DHT22;7654;45.308;-75.096;2022-08-02T12:25:45;22.20;99.90
15107;DHT22;7654;45.308;-75.096;2022-08-02T12:28:15;22.30;99.90
15107;DHT22;7654;45.308;-75.096;2022-08-02T12:30:48;22.30;99.90
15107;DHT22;7654;45.308;-75.096;2022-08-02T12:33:20;22.40;99.90
15107;DHT22;7654;45.308;-75.096;2022-08-02T12:35:50;22.60;99.90
15107;DHT22;7654;45.308;-75.096;2022-08-02T12:38:20;22.70;99.90
15107;DHT22;7654;45.308;-75.096;2022-08-02T12:40:50;22.80;99.90
15107;DHT22;7654;45.308;-75.096;2022-08-02T12:43:21;22.90;99.90
15107;DHT22;7654;45.308;-75.096;2022-08-02T12:45:52;22.90;99.90
15107;DHT22;7654;45.308;-75.096;2022-08-02T12:48:33;23.10;99.90
15107;DHT22;7654;45.308;-75.096;2022-08-02T12:51:17;23.50;99.90
15107;DHT22;7654;45.308;-75.096;2022-08-02T12:53:47;23.70;99.90
15107;DHT22;7654;45.308;-75.096;2022-08-02T12:56:26;23.80;99.90
15107;DHT22;7654;45.308;-75.096;2022-08-02T12:58:57;23.80;99.90
15107;DHT22;7654;45.308;-75.096;2022-08-02T13:01:27;23.90;99.90
15107;DHT22;7654;45.308;-75.096;2022-08-02T13:03:59;24.00;99.90
15107;DHT22;7654;45.308;-75.096;2022-08-02T13:06:39;24.10;99.90
15107;DHT22;7654;45.308;-75.096;2022-08-02T13:09:12;24.10;99.90
15107;DHT22;7654;45.308;-75.096;2022-08-02T13:11:42;24.10;99.90
15107;DHT22;7654;45.308;-75.096;2022-08-02T13:14:12;23.90;99.90
15107;DHT22;7654;45.308;-75.096;2022-08-02T13:16:42;23.80;99.90
15107;DHT22;7654;45.308;-75.096;2022-08-02T13:19:13;23.90;99.90
15107;DHT22;7654;45.308;-75.096;2022-08-02T13:21:43;23.90;99.90
15107;DHT22;7654;45.308;-75.096;2022-08-02T13:24:30;24.20;99.90
15107;DHT22;7654;45.308;-75.096;2022-08-02T13:27:19;24.50;99.90
15107;DHT22;7654;45.308;-75.096;2022-08-02T13:29:49;24.70;99.90
15107;DHT22;7654;45.308;-75.096;2022-08-02T13:32:18;24.70;99.90
15107;DHT22;7654;45.308;-75.096;2022-08-02T13:34:50;24.80;99.90
15107;DHT22;7654;45.308;-75.096;2022-08-02T13:37:20;25.00;99.90
15107;DHT22;7654;45.308;-75.096;2022-08-02T13:39:49;25.10;99.90
15107;DHT22;7654;45.308;-75.096;2022-08-02T13:42:39;25.10;99.90
15107;DHT22;7654;45.308;-75.096;2022-08-02T13:45:09;25.10;99.90
15107;DHT22;7654;45.308;-75.096;2022-08-02T13:47:43;25.10;99.90
15107;DHT22;7654;45.308;-75.096;2022-08-02T13:50:33;25.20;99.90
15107;DHT22;7654;45.308;-75.096;2022-08-02T13:53:02;25.20;99.90
15107;DHT22;7654;45.308;-75.096;2022-08-02T13:55:32;25.20;99.90
15107;DHT22;7654;45.308;-75.096;2022-08-02T13:58:02;25.30;99.90
15107;DHT22;7654;45.308;-75.096;2022-08-02T14:00:32;25.40;99.90
15107;DHT22;7654;45.308;-75.096;2022-08-02T14:03:03;25.50;99.90
15107;DHT22;7654;45.308;-75.096;2022-08-02T14:05:37;25.50;99.90
15107;DHT22;7654;45.308;-75.096;2022-08-02T14:08:15;25.60;99.90
15107;DHT22;7654;45.308;-75.096;2022-08-02T14:10:45;25.50;99.90
15107;DHT22;7654;45.308;-75.096;2022-08-02T14:13:15;25.60;99.90
15107;DHT22;7654;45.308;-75.096;2022-08-02T14:15:45;25.60;99.90
15107;DHT22;7654;45.308;-75.096;2022-08-02T14:18:14;25.80;99.90
15107;DHT22;7654;45.308;-75.096;2022-08-02T14:20:45;25.60;99.90
15107;DHT22;7654;45.308;-75.096;2022-08-02T14:23:15;25.80;99.90
15107;DHT22;7654;45.308;-75.096;2022-08-02T14:26:05;25.90;99.90
15107;DHT22;7654;45.308;-75.096;2022-08-02T14:28:52;26.10;99.90
15107;DHT22;7654;45.308;-75.096;2022-08-02T14:31:22;26.20;99.90
15107;DHT22;7654;45.308;-75.096;2022-08-02T14:33:51;26.30;99.90
15107;DHT22;7654;45.308;-75.096;2022-08-02T14:36:23;26.40;99.90
15107;DHT22;7654;45.308;-75.096;2022-08-02T14:38:54;26.30;99.90
15107;DHT22;7654;45.308;-75.096;2022-08-02T14:41:23;26.30;99.90
15107;DHT22;7654;45.308;-75.096;2022-08-02T14:43:53;26.40;99.90
15107;DHT22;7654;45.308;-75.096;2022-08-02T14:46:32;26.50;99.90
15107;DHT22;7654;45.308;-75.096;2022-08-02T14:49:02;26.60;99.90
15107;DHT22;7654;45.308;-75.096;2022-08-02T14:51:35;26.60;99.90
15107;DHT22;7654;45.308;-75.096;2022-08-02T14:54:06;26.60;99.90
15107;DHT22;7654;45.308;-75.096;2022-08-02T14:56:40;26.50;99.90
15107;DHT22;7654;45.308;-75.096;2022-08-02T14:59:10;26.40;99.90
15107;DHT22;7654;45.308;-75.096;2022-08-02T15:01:39;26.30;99.90
15107;DHT22;7654;45.308;-75.096;2022-08-02T15:04:09;26.20;99.90
15107;DHT22;7654;45.308;-75.096;2022-08-02T15:06:40;25.90;99.90
15107;DHT22;7654;45.308;-75.096;2022-08-02T15:09:10;25.50;99.90
15107;DHT22;7654;45.308;-75.096;2022-08-02T15:11:40;24.40;99.90
15107;DHT22;7654;45.308;-75.096;2022-08-02T15:14:14;23.10;99.90
15107;DHT22;7654;45.308;-75.096;2022-08-02T15:16:51;22.00;99.90
15107;DHT22;7654;45.308;-75.096;2022-08-02T15:19:24;21.40;99.90
15107;DHT22;7654;45.308;-75.096;2022-08-02T15:22:15;21.00;99.90
15107;DHT22;7654;45.308;-75.096;2022-08-02T15:24:46;20.90;99.90
15107;DHT22;7654;45.308;-75.096;2022-08-02T15:27:16;20.80;99.90
15107;DHT22;7654;45.308;-75.096;2022-08-02T15:29:47;20.80;99.90
15107;DHT22;7654;45.308;-75.096;2022-08-02T15:32:16;20.70;99.90
15107;DHT22;7654;45.308;-75.096;2022-08-02T15:34:46;20.50;99.90
15107;DHT22;7654;45.308;-75.096;2022-08-02T15:37:17;20.50;99.90
15107;DHT22;7654;45.308;-75.096;2022-08-02T15:39:47;20.50;99.90
15107;DHT22;7654;45.308;-75.096;2022-08-02T15:42:16;20.60;99.90
15107;DHT22;7654;45.308;-75.096;2022-08-02T15:44:57;20.70;99.90
15107;DHT22;7654;45.308;-75.096;2022-08-02T15:47:27;20.90;99.90
15107;DHT22;7654;45.308;-75.096;2022-08-02T15:49:57;21.10;99.90
15107;DHT22;7654;45.308;-75.096;2022-08-02T15:52:28;21.40;99.90
15107;DHT22;7654;45.308;-75.096;2022-08-02T15:55:01;21.50;99.90
15107;DHT22;7654;45.308;-75.096;2022-08-02T15:57:33;21.60;99.90
15107;DHT22;7654;45.308;-75.096;2022-08-02T16:00:03;21.90;99.90